»·PEaware :: N7TT KDEN-KLAX

N7TT :: KDEN-KLAX

FLIGHT INFORMATION

Flight Status: Arrived
Operator: Privately registered:
United States
More flights under this callsign
Pilot: Kevin M. (32630)
Aircraft: SOCATA TBM-900
(TBM9)
More flights by this aircraft type
Origin: KDEN Denver Intl
United States
Destination: KLAX Los Angeles Intl
United States
More flights between these airports :: More routes between these airports
Route: ROCKI5 DBL V134 JNC V8 WINDS PURSE BOGET2
File this flight plan on PilotEdge
Remarks:
Altitude:
(Current/Filed)
30,000ft
Speed:
(Current/Filed)
335kts
Departed: 28-Feb-21 08:47 AM
Arrived: 28-Feb-21 11:20 AM
Distance/Time
Traveled:
747nm/2:33
Distance/Time
To Go:
Arrived

Flight Plot

Page will automatically refresh every two minutes.

Flight plan parsing failed; only flown route is shown


Map Options




Map Legend


Flown Route
Filed Route
Departure Airport
Arrival Airport
Navaid (VOR, NDB)
Fix

Horizontal Profiles

Position Reports

Time Latitude Longitude Heading Altitude Ground
Speed
28-Feb-21 08:15 39.839297 -104.665358 182 5360ft 0kts
28-Feb-21 08:16 39.839297 -104.665358 182 5360ft 0kts
28-Feb-21 08:17 39.839297 -104.665358 182 5360ft 0kts
28-Feb-21 08:18 39.839297 -104.665358 182 5360ft 0kts
28-Feb-21 08:20 39.839297 -104.665358 182 5360ft 0kts
28-Feb-21 08:21 39.839297 -104.665358 182 5360ft 0kts
28-Feb-21 08:22 39.839297 -104.665358 182 5360ft 0kts
28-Feb-21 08:23 39.839297 -104.665358 182 5360ft 0kts
28-Feb-21 08:24 39.839297 -104.665358 182 5360ft 0kts
28-Feb-21 08:25 39.839297 -104.665358 182 5360ft 0kts
28-Feb-21 08:26 39.839297 -104.665358 182 5360ft 0kts
28-Feb-21 08:27 39.839297 -104.665358 182 5360ft 0kts
28-Feb-21 08:28 39.839297 -104.665358 182 5360ft 0kts
28-Feb-21 08:29 39.839297 -104.665358 182 5360ft 0kts
28-Feb-21 08:30 39.839297 -104.665358 182 5360ft 0kts
28-Feb-21 08:31 39.839297 -104.665358 182 5360ft 0kts
28-Feb-21 08:32 39.839297 -104.665358 182 5360ft 0kts
28-Feb-21 08:33 39.839297 -104.665358 182 5360ft 0kts
28-Feb-21 08:34 39.839297 -104.665358 182 5360ft 0kts
28-Feb-21 08:35 39.839297 -104.665358 182 5360ft 0kts
28-Feb-21 08:36 39.839297 -104.665358 182 5360ft 0kts
28-Feb-21 08:37 39.839297 -104.665358 182 5360ft 0kts
28-Feb-21 08:38 39.839297 -104.665358 182 5360ft 0kts
28-Feb-21 08:39 39.839297 -104.665358 182 5360ft 0kts
28-Feb-21 08:39 39.838994 -104.665115 59 5360ft 5kts
28-Feb-21 08:41 39.839046 -104.664741 88 5360ft 0kts
28-Feb-21 08:41 39.839365 -104.664240 40 5360ft 13kts
28-Feb-21 08:42 39.843989 -104.662480 0 5360ft 29kts
28-Feb-21 08:44 39.854687 -104.662346 0 5360ft 34kts
28-Feb-21 08:44 39.861026 -104.661921 68 5360ft 9kts
28-Feb-21 08:46 39.860117 -104.660150 180 5361ft 0kts
28-Feb-21 08:46 39.847870 -104.660185 177 5468ft 105kts
28-Feb-21 08:47 39.810131 -104.667991 193 6623ft 160kts
28-Feb-21 08:48 39.765808 -104.680575 194 8456ft 168kts
28-Feb-21 08:49 39.746942 -104.716626 290 10298ft 152kts
28-Feb-21 08:50 39.749130 -104.773208 266 12198ft 162kts
28-Feb-21 08:51 39.745252 -104.832608 266 14364ft 167kts
28-Feb-21 08:52 39.741360 -104.892917 264 16486ft 166kts
28-Feb-21 08:53 39.737523 -104.951980 264 18604ft 162kts
28-Feb-21 08:54 39.733730 -105.009965 263 20611ft 161kts
28-Feb-21 08:55 39.729801 -105.069326 265 22327ft 172kts
28-Feb-21 08:56 39.725225 -105.138024 265 23391ft 207kts
28-Feb-21 08:57 39.720405 -105.209763 265 25418ft 193kts
28-Feb-21 08:58 39.715823 -105.277426 265 27386ft 181kts
28-Feb-21 08:59 39.711585 -105.339666 265 29318ft 166kts
28-Feb-21 09:00 39.706830 -105.408238 264 30053ft 210kts
28-Feb-21 09:01 39.700968 -105.492684 264 30191ft 258kts
28-Feb-21 09:02 39.694047 -105.591004 264 30149ft 284kts
28-Feb-21 09:03 39.683040 -105.694777 254 30169ft 297kts
28-Feb-21 09:04 39.662372 -105.798425 256 30156ft 298kts
28-Feb-21 09:05 39.641789 -105.901949 256 30171ft 300kts
28-Feb-21 09:06 39.621031 -106.006037 256 30162ft 302kts
28-Feb-21 09:07 39.600408 -106.108818 256 30042ft 304kts
28-Feb-21 09:08 39.579117 -106.214380 256 30021ft 305kts
28-Feb-21 09:09 39.557400 -106.321589 256 30055ft 308kts
28-Feb-21 09:10 39.535468 -106.429251 256 30036ft 310kts
28-Feb-21 09:11 39.513294 -106.537581 257 30039ft 312kts
28-Feb-21 09:12 39.490920 -106.646233 257 30249ft 313kts
28-Feb-21 09:13 39.468247 -106.755793 257 30262ft 315kts
28-Feb-21 09:14 39.444843 -106.865378 256 30273ft 318kts
28-Feb-21 09:15 39.423701 -106.976620 258 30260ft 319kts
28-Feb-21 09:16 39.402162 -107.088493 259 30145ft 321kts
28-Feb-21 09:17 39.380407 -107.201053 259 30145ft 323kts
28-Feb-21 09:18 39.358431 -107.314098 259 30136ft 326kts
28-Feb-21 09:19 39.336180 -107.427943 259 30256ft 327kts
28-Feb-21 09:20 39.313704 -107.542188 259 30232ft 329kts
28-Feb-21 09:21 39.290931 -107.657455 259 30288ft 332kts
28-Feb-21 09:22 39.267911 -107.773006 260 30291ft 334kts
28-Feb-21 09:23 39.244642 -107.889431 260 30297ft 336kts
28-Feb-21 09:24 39.221038 -108.006813 260 30290ft 339kts
28-Feb-21 09:25 39.197155 -108.124896 260 30266ft 341kts
28-Feb-21 09:26 39.173074 -108.243335 260 30297ft 343kts
28-Feb-21 09:27 39.148805 -108.361924 261 30278ft 345kts
28-Feb-21 09:28 39.124225 -108.481437 261 30263ft 347kts
28-Feb-21 09:29 39.099468 -108.601091 261 30265ft 349kts
28-Feb-21 09:30 39.074220 -108.722459 261 30308ft 351kts
28-Feb-21 09:31 39.042970 -108.842757 252 30278ft 360kts
28-Feb-21 09:32 39.004308 -108.961607 253 30269ft 361kts
28-Feb-21 09:33 38.965280 -109.080443 253 30420ft 362kts
28-Feb-21 09:34 38.925972 -109.199514 253 30389ft 364kts
28-Feb-21 09:35 38.886385 -109.319054 253 30327ft 366kts
28-Feb-21 09:36 38.846193 -109.439867 253 30277ft 368kts
28-Feb-21 09:37 38.805847 -109.560662 253 30271ft 369kts
28-Feb-21 09:38 38.765176 -109.681822 254 30258ft 370kts
28-Feb-21 09:39 38.724210 -109.803410 254 30283ft 373kts
28-Feb-21 09:40 38.682815 -109.925671 254 30265ft 375kts
28-Feb-21 09:41 38.641067 -110.048546 254 30264ft 375kts
28-Feb-21 09:42 38.599201 -110.171266 254 30278ft 378kts
28-Feb-21 09:43 38.557062 -110.294211 254 30321ft 379kts
28-Feb-21 09:44 38.514613 -110.417543 254 30360ft 380kts
28-Feb-21 09:45 38.471882 -110.541189 254 30333ft 381kts
28-Feb-21 09:46 38.428725 -110.665441 254 30335ft 383kts
28-Feb-21 09:47 38.378359 -110.786684 247 30342ft 389kts
28-Feb-21 09:48 38.324930 -110.906811 248 30344ft 390kts
28-Feb-21 09:49 38.271391 -111.027106 248 30325ft 392kts
28-Feb-21 09:50 38.217344 -111.147479 248 30365ft 392kts
28-Feb-21 09:51 38.163224 -111.267958 248 30303ft 394kts
28-Feb-21 09:52 38.108816 -111.388538 248 30244ft 391kts
28-Feb-21 09:53 38.054377 -111.508834 248 30294ft 394kts
28-Feb-21 09:54 37.998781 -111.628541 247 30109ft 392kts
28-Feb-21 09:55 37.945041 -111.748788 245 30230ft 394kts
28-Feb-21 09:56 37.901073 -111.845767 255 30236ft 390kts
28-Feb-21 09:57 37.846699 -111.964420 250 30091ft 389kts
28-Feb-21 09:58 37.814393 -112.033762 247 30158ft 394kts
28-Feb-21 09:59 37.760466 -112.150334 248 30235ft 393kts
28-Feb-21 10:00 37.727671 -112.223412 251 30156ft 398kts
28-Feb-21 10:01 37.671126 -112.343798 250 30255ft 397kts
28-Feb-21 10:02 37.616400 -112.464296 250 30235ft 396kts
28-Feb-21 10:03 37.561566 -112.584746 248 30280ft 396kts
28-Feb-21 10:04 37.506817 -112.704696 248 30385ft 395kts
28-Feb-21 10:05 37.452297 -112.823535 248 30318ft 394kts
28-Feb-21 10:06 37.397416 -112.942662 248 30301ft 391kts
28-Feb-21 10:07 37.342692 -113.061163 248 30350ft 392kts
28-Feb-21 10:08 37.288116 -113.179180 249 30406ft 391kts
28-Feb-21 10:09 37.233072 -113.297224 249 30415ft 391kts
28-Feb-21 10:10 37.178275 -113.414371 249 30372ft 390kts
28-Feb-21 10:11 37.123607 -113.531368 249 30371ft 388kts
28-Feb-21 10:12 37.068756 -113.647850 248 30394ft 388kts
28-Feb-21 10:13 37.013971 -113.763932 249 30410ft 386kts
28-Feb-21 10:14 36.959963 -113.877748 248 30397ft 385kts
28-Feb-21 10:15 36.905573 -113.992397 248 30398ft 384kts
28-Feb-21 10:16 36.851029 -114.106769 248 30379ft 383kts
28-Feb-21 10:17 36.796638 -114.220392 248 30385ft 382kts
28-Feb-21 10:18 36.715486 -114.308953 201 30376ft 406kts
28-Feb-21 10:19 36.605842 -114.339184 188 30404ft 405kts
28-Feb-21 10:20 36.496487 -114.374293 195 30385ft 407kts
28-Feb-21 10:21 36.387826 -114.412704 195 30411ft 407kts
28-Feb-21 10:22 36.279043 -114.451044 195 30445ft 407kts
28-Feb-21 10:23 36.170218 -114.489266 195 30394ft 407kts
28-Feb-21 10:24 36.061196 -114.527446 195 30438ft 407kts
28-Feb-21 10:25 35.954333 -114.564757 195 30434ft 408kts
28-Feb-21 10:26 35.866379 -114.600225 213 30391ft 403kts
28-Feb-21 10:27 35.807552 -114.706532 249 30488ft 378kts
28-Feb-21 10:28 35.756623 -114.817916 250 30441ft 374kts
28-Feb-21 10:29 35.705469 -114.929464 251 30435ft 373kts
28-Feb-21 10:30 35.654394 -115.040496 250 30445ft 372kts
28-Feb-21 10:31 35.603554 -115.150648 249 30479ft 371kts
28-Feb-21 10:32 35.540891 -115.253306 233 30355ft 384kts
28-Feb-21 10:33 35.469591 -115.349946 235 30368ft 380kts
28-Feb-21 10:34 35.398514 -115.445941 235 30372ft 379kts
28-Feb-21 10:35 35.327907 -115.541041 235 30357ft 378kts
28-Feb-21 10:36 35.257056 -115.636157 235 30352ft 376kts
28-Feb-21 10:37 35.186344 -115.730844 234 30346ft 375kts
28-Feb-21 10:38 35.118947 -115.826562 240 30310ft 371kts
28-Feb-21 10:39 35.064908 -115.931999 247 28633ft 362kts
28-Feb-21 10:40 35.012007 -116.035863 246 27074ft 359kts
28-Feb-21 10:41 34.959263 -116.139302 245 25552ft 358kts
28-Feb-21 10:43 34.909161 -116.242651 254 24485ft 344kts
28-Feb-21 10:44 34.869091 -116.346776 252 24103ft 335kts
28-Feb-21 10:45 34.829621 -116.448435 252 23627ft 329kts
28-Feb-21 10:46 34.792208 -116.548272 259 23442ft 317kts
28-Feb-21 10:47 34.778091 -116.652355 271 22814ft 316kts
28-Feb-21 10:48 34.768003 -116.757707 270 22356ft 310kts
28-Feb-21 10:49 34.757725 -116.861933 270 21835ft 311kts
28-Feb-21 10:50 34.747264 -116.966226 269 21086ft 311kts
28-Feb-21 10:51 34.736702 -117.070185 269 20332ft 309kts
28-Feb-21 10:52 34.726092 -117.173648 269 19540ft 308kts
28-Feb-21 10:53 34.715438 -117.276626 269 18741ft 306kts
28-Feb-21 10:54 34.704778 -117.378915 268 17857ft 305kts
28-Feb-21 10:55 34.694041 -117.480960 268 16968ft 303kts
28-Feb-21 10:56 34.683305 -117.581317 267 16158ft 297kts
28-Feb-21 10:57 34.672863 -117.680292 267 15354ft 294kts
28-Feb-21 10:58 34.662374 -117.778944 266 14538ft 293kts
28-Feb-21 10:59 34.647319 -117.876494 257 13475ft 299kts
28-Feb-21 11:00 34.615034 -117.970437 248 12205ft 301kts
28-Feb-21 11:01 34.582189 -118.062547 248 10898ft 298kts
28-Feb-21 11:01 34.554678 -118.139100 248 9659ft 296kts
28-Feb-21 11:03 34.509333 -118.236957 214 8237ft 290kts
28-Feb-21 11:04 34.438385 -118.275865 191 7825ft 267kts
28-Feb-21 11:04 34.383274 -118.292681 191 7544ft 230kts
28-Feb-21 11:06 34.314126 -118.313708 187 7469ft 224kts
28-Feb-21 11:06 34.259643 -118.314839 170 6816ft 248kts
28-Feb-21 11:07 34.192889 -118.292697 155 6013ft 242kts
28-Feb-21 11:09 34.122369 -118.273514 200 5990ft 238kts
28-Feb-21 11:09 34.071055 -118.270081 154 5692ft 241kts
28-Feb-21 11:11 34.004514 -118.233731 153 4094ft 195kts
28-Feb-21 11:11 33.970963 -118.215254 152 4000ft 138kts
28-Feb-21 11:12 33.936241 -118.200787 209 3883ft 142kts
28-Feb-21 11:13 33.938709 -118.243879 293 1597ft 109kts
28-Feb-21 11:14 33.943500 -118.273731 282 1834ft 94kts
28-Feb-21 11:15 33.944855 -118.303645 270 1317ft 87kts
28-Feb-21 11:16 33.942305 -118.332438 266 939ft 87kts
28-Feb-21 11:17 33.939606 -118.361506 264 519ft 88kts
28-Feb-21 11:18 33.936611 -118.390099 262 120ft 68kts
28-Feb-21 11:19 33.934529 -118.401971 155 120ft 0kts
28-Feb-21 11:20 33.934372 -118.399954 83 120ft 25kts
28-Feb-21 11:21 33.934415 -118.393867 183 120ft 0kts
28-Feb-21 11:22 33.933963 -118.395166 180 120ft 3kts
28-Feb-21 11:23 33.933953 -118.395166 179 120ft 0kts
28-Feb-21 11:24 33.933953 -118.395166 179 120ft 0kts
28-Feb-21 11:25 33.933953 -118.395166 179 120ft 0kts
28-Feb-21 11:26 33.933953 -118.395166 179 120ft 0kts
28-Feb-21 11:27 33.933953 -118.395166 179 120ft 0kts
28-Feb-21 11:28 33.933953 -118.395166 179 120ft 0kts
28-Feb-21 11:29 33.933953 -118.395166 179 120ft 0kts
28-Feb-21 11:30 33.933953 -118.395166 179 120ft 0kts
28-Feb-21 11:31 33.933953 -118.395166 179 120ft 0kts
28-Feb-21 11:32 33.933953 -118.395166 179 120ft 0kts
28-Feb-21 11:33 33.933953 -118.395166 179 120ft 0kts
28-Feb-21 11:34 33.933953 -118.395166 179 120ft 0kts

Navigation Log

Ident Type
Flight plan parsing failed, navigation log unavailable